createdAt,value
2022-07-31T00:01:17.584Z,33.50
2022-07-31T00:03:46.011Z,29.33
2022-07-31T00:06:13.989Z,21.15
2022-07-31T00:08:41.914Z,21.87
2022-07-31T00:11:12.014Z,21.85
2022-07-31T00:13:58.109Z,17.65
2022-07-31T00:16:29.459Z,19.27
2022-07-31T00:18:57.481Z,17.02
2022-07-31T00:21:25.497Z,16.35
2022-07-31T00:23:53.937Z,15.57
2022-07-31T00:26:22.039Z,14.07
2022-07-31T00:28:50.102Z,13.68
2022-07-31T00:31:18.834Z,16.60
2022-07-31T00:33:46.816Z,13.70
2022-07-31T00:36:14.720Z,11.27
2022-07-31T00:38:43.142Z,12.57
2022-07-31T00:41:11.604Z,13.73
2022-07-31T00:43:39.596Z,11.85
2022-07-31T00:46:07.887Z,11.23
2022-07-31T00:48:42.449Z,9.48
2022-07-31T00:51:10.681Z,9.15
2022-07-31T00:53:38.653Z,9.38
2022-07-31T00:56:06.680Z,11.20
2022-07-31T00:58:35.381Z,8.95
2022-07-31T01:01:03.438Z,14.07
2022-07-31T01:03:31.750Z,15.85
2022-07-31T01:06:02.278Z,14.52
2022-07-31T01:08:30.429Z,14.73
2022-07-31T01:11:16.040Z,13.48
2022-07-31T01:13:54.783Z,13.65
2022-07-31T01:16:26.716Z,15.02
2022-07-31T01:18:59.704Z,19.37
2022-07-31T01:21:40.309Z,18.95
2022-07-31T01:24:43.983Z,15.15
2022-07-31T01:27:27.407Z,17.15
2022-07-31T01:29:59.443Z,13.30
2022-07-31T01:32:35.859Z,13.50
2022-07-31T01:35:30.049Z,16.12
2022-07-31T01:38:05.317Z,14.48
2022-07-31T01:40:36.703Z,15.95
2022-07-31T01:43:13.022Z,15.75
2022-07-31T01:45:45.936Z,14.52
2022-07-31T01:48:16.380Z,14.48
2022-07-31T01:50:47.328Z,15.65
2022-07-31T01:53:21.152Z,14.40
2022-07-31T01:56:03.796Z,14.07
2022-07-31T02:01:08.073Z,14.77
2022-07-31T02:03:44.102Z,14.25
2022-07-31T02:06:17.184Z,14.43
2022-07-31T02:08:53.115Z,16.30
2022-07-31T02:11:22.898Z,18.77
2022-07-31T02:13:53.628Z,18.52
2022-07-31T02:16:23.686Z,15.25
2022-07-31T02:18:56.029Z,14.87
2022-07-31T02:21:27.232Z,18.20
2022-07-31T02:23:57.119Z,16.27
2022-07-31T02:26:28.051Z,18.02
2022-07-31T02:28:57.427Z,15.02
2022-07-31T02:31:26.800Z,11.77
2022-07-31T02:33:54.810Z,13.05
2022-07-31T02:36:24.222Z,17.08
2022-07-31T02:38:55.355Z,12.82
2022-07-31T02:41:25.423Z,14.38
2022-07-31T02:43:54.108Z,13.70
2022-07-31T02:46:23.423Z,10.80
2022-07-31T02:48:52.065Z,13.23
2022-07-31T02:51:21.257Z,11.48
2022-07-31T02:53:49.901Z,12.70
2022-07-31T02:56:19.923Z,12.13
2022-07-31T02:58:48.305Z,8.23
2022-07-31T03:01:17.733Z,9.48
2022-07-31T03:03:45.719Z,12.07
2022-07-31T03:06:14.786Z,11.30
2022-07-31T03:08:43.655Z,10.07
2022-07-31T03:11:12.214Z,10.35
2022-07-31T03:13:43.980Z,10.13
2022-07-31T03:16:13.398Z,10.52
2022-07-31T03:18:42.381Z,11.05
2022-07-31T03:21:12.375Z,5.15
2022-07-31T03:23:40.913Z,11.15
2022-07-31T03:26:10.915Z,10.02
2022-07-31T03:28:40.263Z,10.43
2022-07-31T03:31:08.753Z,8.43
2022-07-31T03:33:37.448Z,8.82
2022-07-31T03:36:24.151Z,8.25
2022-07-31T03:38:52.502Z,10.13
2022-07-31T03:41:21.832Z,9.30
2022-07-31T03:43:51.205Z,10.73
2022-07-31T03:46:21.695Z,10.00
2022-07-31T03:48:53.016Z,9.77
2022-07-31T03:51:22.044Z,10.52
2022-07-31T03:53:51.823Z,10.20
2022-07-31T03:56:23.860Z,8.13
2022-07-31T03:58:52.818Z,9.50
2022-07-31T04:01:22.354Z,7.87
2022-07-31T04:04:00.628Z,6.45
2022-07-31T04:06:31.379Z,8.90
2022-07-31T04:09:13.674Z,8.50
2022-07-31T04:11:47.892Z,10.98
2022-07-31T04:14:35.486Z,9.95
2022-07-31T04:17:03.730Z,5.57
2022-07-31T04:19:32.869Z,10.30
2022-07-31T04:22:01.655Z,8.75
2022-07-31T04:24:31.625Z,10.07
2022-07-31T04:27:00.572Z,8.05
2022-07-31T04:29:30.099Z,6.43
2022-07-31T04:31:58.930Z,6.87
2022-07-31T04:34:27.850Z,5.90
2022-07-31T04:39:41.258Z,8.85
2022-07-31T04:42:11.617Z,8.68
2022-07-31T04:44:39.872Z,7.25
2022-07-31T04:47:09.329Z,7.47
2022-07-31T04:49:39.324Z,8.73
2022-07-31T04:52:10.331Z,8.85
2022-07-31T04:54:39.906Z,7.63
2022-07-31T04:57:08.654Z,9.20
2022-07-31T04:59:59.295Z,8.35
2022-07-31T05:02:24.916Z,7.57
2022-07-31T05:04:56.892Z,7.15
2022-07-31T05:07:28.922Z,5.97
2022-07-31T05:09:58.957Z,5.60
2022-07-31T05:12:27.718Z,7.03
2022-07-31T05:14:55.791Z,4.95
2022-07-31T05:17:23.818Z,4.62
2022-07-31T05:19:52.624Z,4.07
2022-07-31T05:22:21.930Z,3.95
2022-07-31T05:24:49.895Z,3.78
2022-07-31T05:27:39.111Z,4.22
2022-07-31T05:30:10.246Z,4.78
2022-07-31T05:32:38.789Z,4.45
2022-07-31T05:35:07.129Z,3.92
2022-07-31T05:37:36.137Z,3.85
2022-07-31T05:40:05.697Z,3.83
2022-07-31T05:42:38.708Z,3.80
2022-07-31T05:45:08.298Z,3.72
2022-07-31T05:47:40.457Z,4.35
2022-07-31T05:50:10.048Z,4.28
2022-07-31T05:55:25.774Z,3.85
2022-07-31T05:57:53.890Z,3.90
2022-07-31T06:00:21.826Z,3.90
2022-07-31T06:02:51.009Z,3.53
2022-07-31T06:05:20.680Z,2.78
2022-07-31T06:07:52.157Z,3.72
2022-07-31T06:10:25.387Z,2.87
2022-07-31T06:12:53.544Z,2.40
2022-07-31T06:15:22.131Z,2.20
2022-07-31T06:17:51.060Z,2.00
2022-07-31T06:20:20.697Z,2.20
2022-07-31T06:23:22.662Z,2.00
2022-07-31T06:25:57.719Z,2.00
2022-07-31T06:28:35.381Z,2.37
2022-07-31T06:31:18.864Z,1.98
2022-07-31T06:33:48.548Z,1.85
2022-07-31T06:36:18.941Z,2.08
2022-07-31T06:38:47.349Z,1.70
2022-07-31T06:44:54.946Z,1.60
2022-07-31T06:47:27.059Z,1.50
2022-07-31T06:49:56.068Z,1.62
2022-07-31T06:52:26.871Z,1.60
2022-07-31T06:54:55.581Z,1.40
2022-07-31T06:57:23.577Z,1.50
2022-07-31T06:59:51.592Z,1.40
2022-07-31T07:02:19.968Z,1.10
2022-07-31T07:05:04.870Z,1.25
2022-07-31T07:07:36.733Z,1.20
2022-07-31T07:10:06.510Z,1.00
2022-07-31T07:12:36.841Z,1.30
2022-07-31T07:15:05.516Z,1.00
2022-07-31T07:17:34.045Z,0.90
2022-07-31T07:20:02.970Z,1.12
2022-07-31T07:22:32.823Z,1.23
2022-07-31T07:25:01.948Z,1.00
2022-07-31T07:27:31.520Z,1.00
2022-07-31T07:30:00.177Z,1.12
2022-07-31T07:32:28.524Z,1.12
2022-07-31T07:34:59.678Z,1.00
2022-07-31T07:37:38.932Z,1.17
2022-07-31T07:40:09.366Z,1.12
2022-07-31T07:42:38.448Z,1.12
2022-07-31T07:45:08.214Z,1.30
2022-07-31T07:48:05.024Z,0.93
2022-07-31T07:50:26.777Z,1.00
2022-07-31T07:52:59.356Z,1.20
2022-07-31T07:55:37.535Z,1.10
2022-07-31T07:58:29.746Z,1.05
2022-07-31T08:01:02.075Z,1.20
2022-07-31T08:03:50.885Z,1.17
2022-07-31T08:06:19.093Z,1.23
2022-07-31T08:08:47.720Z,1.40
2022-07-31T08:11:20.775Z,0.80
2022-07-31T08:13:51.369Z,1.33
2022-07-31T08:16:23.289Z,1.50
2022-07-31T08:18:52.164Z,1.35
2022-07-31T08:21:20.245Z,1.80
2022-07-31T08:23:48.446Z,1.33
2022-07-31T08:26:18.822Z,1.42
2022-07-31T08:28:49.806Z,1.35
2022-07-31T08:31:23.559Z,1.50
2022-07-31T08:33:53.291Z,1.50
2022-07-31T08:36:21.058Z,1.62
2022-07-31T08:38:52.057Z,1.50
2022-07-31T08:41:22.916Z,1.08
2022-07-31T08:44:01.751Z,1.30
2022-07-31T08:46:40.237Z,1.87
2022-07-31T08:49:11.838Z,1.83
2022-07-31T08:52:01.018Z,1.48
2022-07-31T08:54:36.022Z,1.60
2022-07-31T08:57:05.724Z,1.02
2022-07-31T08:59:44.737Z,1.65
2022-07-31T09:02:13.603Z,0.93
2022-07-31T09:04:48.231Z,1.52
2022-07-31T09:07:18.429Z,1.73
2022-07-31T09:09:51.593Z,2.40
2022-07-31T09:12:34.650Z,3.53
2022-07-31T09:15:04.307Z,1.50
2022-07-31T09:17:35.372Z,1.50
2022-07-31T09:20:06.073Z,1.30
2022-07-31T09:22:34.840Z,1.55
2022-07-31T09:25:12.689Z,1.27
2022-07-31T09:27:41.107Z,1.37
2022-07-31T09:30:10.215Z,1.60
2022-07-31T09:32:41.657Z,1.65
2022-07-31T09:35:13.454Z,1.52
2022-07-31T09:37:42.435Z,1.67
2022-07-31T09:40:12.660Z,1.90
2022-07-31T09:42:55.487Z,1.83
2022-07-31T09:45:25.999Z,1.70
2022-07-31T09:48:06.686Z,1.58
2022-07-31T09:50:35.401Z,1.77
2022-07-31T09:53:03.482Z,1.40
2022-07-31T09:55:33.016Z,1.70
2022-07-31T09:58:01.886Z,1.30
2022-07-31T10:00:30.357Z,1.73
2022-07-31T10:03:00.463Z,1.50
2022-07-31T10:05:28.947Z,1.62
2022-07-31T10:08:00.817Z,1.77
2022-07-31T10:10:32.626Z,1.30
2022-07-31T10:13:07.078Z,1.58
2022-07-31T10:15:38.012Z,1.50
2022-07-31T10:18:09.866Z,1.73
2022-07-31T10:20:42.588Z,1.23
2022-07-31T10:23:18.321Z,1.50
2022-07-31T10:25:53.640Z,1.30
2022-07-31T10:28:24.489Z,1.48
2022-07-31T10:30:53.726Z,1.80
2022-07-31T10:33:43.097Z,1.92
2022-07-31T10:36:20.725Z,1.87
2022-07-31T10:39:02.267Z,1.75
2022-07-31T10:41:55.250Z,1.80
2022-07-31T10:47:21.372Z,1.42
2022-07-31T10:49:50.627Z,1.30
2022-07-31T10:52:32.278Z,1.52
2022-07-31T10:55:04.045Z,1.55
2022-07-31T10:57:57.241Z,1.58
2022-07-31T11:00:29.573Z,1.62
2022-07-31T11:02:58.607Z,1.40
2022-07-31T11:05:28.450Z,1.80
2022-07-31T11:08:10.415Z,1.50
2022-07-31T11:10:56.756Z,1.90
2022-07-31T11:13:36.795Z,1.77
2022-07-31T11:16:07.029Z,1.92
2022-07-31T11:18:39.978Z,1.85
2022-07-31T11:21:36.313Z,2.10
2022-07-31T11:24:02.973Z,4.82
2022-07-31T11:26:41.222Z,2.45
2022-07-31T11:30:01.217Z,2.10
2022-07-31T11:32:02.115Z,1.92
2022-07-31T11:34:30.248Z,1.67
2022-07-31T11:36:58.585Z,1.75
2022-07-31T11:39:36.939Z,1.52
2022-07-31T11:42:07.724Z,1.65
2022-07-31T11:44:36.605Z,1.83
2022-07-31T11:48:09.826Z,1.80
2022-07-31T11:50:02.415Z,1.62
2022-07-31T11:52:37.027Z,2.00
2022-07-31T11:55:16.634Z,1.75
2022-07-31T11:57:51.402Z,1.55
2022-07-31T12:00:28.848Z,2.05
2022-07-31T12:02:59.100Z,1.67
2022-07-31T12:05:38.790Z,1.95
2022-07-31T12:08:08.300Z,1.58
2022-07-31T12:10:36.621Z,1.55
2022-07-31T12:13:04.488Z,1.77
2022-07-31T12:15:32.893Z,1.65
2022-07-31T12:18:03.616Z,1.45
2022-07-31T12:20:37.151Z,1.75
2022-07-31T12:23:06.622Z,1.58
2022-07-31T12:25:46.693Z,1.90
2022-07-31T12:28:16.054Z,2.00
2022-07-31T12:33:43.866Z,1.83
2022-07-31T12:36:14.285Z,1.73
2022-07-31T12:38:45.151Z,1.52
2022-07-31T12:41:16.886Z,1.60
2022-07-31T12:43:50.232Z,1.60
2022-07-31T12:46:38.172Z,1.48
2022-07-31T12:49:07.017Z,1.27
2022-07-31T12:51:45.111Z,1.37
2022-07-31T12:54:18.738Z,1.80
2022-07-31T12:56:47.265Z,1.55
2022-07-31T12:59:18.227Z,1.40
2022-07-31T13:01:46.249Z,1.60
2022-07-31T13:04:19.115Z,1.25
2022-07-31T13:06:51.899Z,2.00
2022-07-31T13:09:20.575Z,1.83
2022-07-31T13:11:52.263Z,1.55
2022-07-31T13:14:24.347Z,1.60
2022-07-31T13:16:54.023Z,1.40
2022-07-31T13:19:22.502Z,1.60
2022-07-31T13:21:50.502Z,1.35
2022-07-31T13:24:20.619Z,1.48
2022-07-31T13:26:51.392Z,1.70
2022-07-31T13:29:20.952Z,2.00
2022-07-31T13:31:48.912Z,2.03
2022-07-31T13:34:17.136Z,1.67
2022-07-31T13:36:45.642Z,1.80
2022-07-31T13:39:13.750Z,1.87
2022-07-31T13:41:42.220Z,1.65
2022-07-31T13:44:10.733Z,1.87
2022-07-31T13:46:38.893Z,3.67
2022-07-31T13:49:10.869Z,2.70
2022-07-31T13:51:39.589Z,3.17
2022-07-31T13:54:08.305Z,3.28
2022-07-31T13:56:42.809Z,1.85
2022-07-31T13:59:13.110Z,1.90
2022-07-31T14:02:04.133Z,1.67
2022-07-31T14:04:32.468Z,1.42
2022-07-31T14:07:07.146Z,1.83
2022-07-31T14:09:36.311Z,1.40
2022-07-31T14:12:05.568Z,2.00
2022-07-31T14:14:34.285Z,1.52
2022-07-31T14:17:02.849Z,1.75
2022-07-31T14:19:44.088Z,1.65
2022-07-31T14:22:13.557Z,1.67
2022-07-31T14:24:42.065Z,1.55
2022-07-31T14:27:18.543Z,2.00
2022-07-31T14:29:47.025Z,1.55
2022-07-31T14:35:04.578Z,1.83
2022-07-31T14:37:35.600Z,1.67
2022-07-31T14:40:05.993Z,1.60
2022-07-31T14:42:34.000Z,1.50
2022-07-31T14:45:06.571Z,1.50
2022-07-31T14:47:35.898Z,2.15
2022-07-31T14:50:12.034Z,2.28
2022-07-31T14:52:41.294Z,2.25
2022-07-31T14:55:09.781Z,1.95
2022-07-31T14:57:37.878Z,1.48
2022-07-31T15:00:14.219Z,1.67
2022-07-31T15:02:45.807Z,1.62
2022-07-31T15:06:51.334Z,1.73
2022-07-31T15:08:03.595Z,1.77
2022-07-31T15:10:32.441Z,1.60
2022-07-31T15:13:00.327Z,1.80
2022-07-31T15:15:28.411Z,1.45
2022-07-31T15:17:57.084Z,2.00
2022-07-31T15:20:30.989Z,2.10
2022-07-31T15:23:02.584Z,1.83
2022-07-31T15:25:31.089Z,1.75
2022-07-31T15:27:59.348Z,1.98
2022-07-31T15:30:27.724Z,2.30
2022-07-31T15:32:55.625Z,3.78
2022-07-31T15:35:23.735Z,3.55
2022-07-31T15:37:52.265Z,2.65
2022-07-31T15:40:20.278Z,1.70
2022-07-31T15:42:49.496Z,2.40
2022-07-31T15:45:19.456Z,1.70
2022-07-31T15:47:48.611Z,1.90
2022-07-31T15:50:21.895Z,1.70
2022-07-31T15:52:50.983Z,2.03
2022-07-31T15:55:19.173Z,1.95
2022-07-31T15:57:47.529Z,2.00
2022-07-31T16:00:16.362Z,1.65
2022-07-31T16:02:45.479Z,1.55
2022-07-31T16:05:35.865Z,1.95
2022-07-31T16:08:32.246Z,1.80
2022-07-31T16:10:55.144Z,1.98
2022-07-31T16:13:25.281Z,1.80
2022-07-31T16:15:53.799Z,2.10
2022-07-31T16:18:21.799Z,2.00
2022-07-31T16:20:50.320Z,2.22
2022-07-31T16:23:18.381Z,3.55
2022-07-31T16:25:46.554Z,3.28
2022-07-31T16:28:15.400Z,3.58
2022-07-31T16:30:45.936Z,4.40
2022-07-31T16:33:14.225Z,4.60
2022-07-31T16:35:42.185Z,6.00
2022-07-31T16:38:10.109Z,6.57
2022-07-31T16:40:38.591Z,6.12
2022-07-31T16:43:50.706Z,5.70
2022-07-31T16:45:56.515Z,5.80
2022-07-31T16:48:24.721Z,4.25
2022-07-31T16:50:52.991Z,2.47
2022-07-31T16:54:10.856Z,5.60
2022-07-31T16:56:16.213Z,6.43
2022-07-31T16:58:44.894Z,6.30
2022-07-31T17:01:59.451Z,5.80
2022-07-31T17:04:03.811Z,4.50
2022-07-31T17:06:39.964Z,4.55
2022-07-31T17:09:15.218Z,5.68
2022-07-31T17:11:49.104Z,10.68
2022-07-31T17:14:19.473Z,13.27
2022-07-31T17:16:49.333Z,7.10
2022-07-31T17:19:41.785Z,6.78
2022-07-31T17:22:11.288Z,5.85
2022-07-31T17:24:40.483Z,4.55
2022-07-31T17:27:09.976Z,4.47
2022-07-31T17:29:39.703Z,3.90
2022-07-31T17:32:08.395Z,4.05
2022-07-31T17:34:40.405Z,4.95
2022-07-31T17:37:09.178Z,4.62
2022-07-31T17:39:37.548Z,4.57
2022-07-31T17:42:05.746Z,5.53
2022-07-31T17:44:33.994Z,5.87
2022-07-31T17:47:05.102Z,5.80
2022-07-31T17:49:33.910Z,5.12
2022-07-31T17:52:01.776Z,5.40
2022-07-31T17:54:31.031Z,5.75
2022-07-31T17:57:00.087Z,4.85
2022-07-31T17:59:28.792Z,6.07
2022-07-31T18:05:05.658Z,5.15
2022-07-31T18:07:33.706Z,5.25
2022-07-31T18:10:01.990Z,4.90
2022-07-31T18:12:56.859Z,5.30
2022-07-31T18:15:19.382Z,5.00
2022-07-31T18:17:54.603Z,5.80
2022-07-31T18:20:22.980Z,4.90
2022-07-31T18:22:52.055Z,5.70
2022-07-31T18:25:20.227Z,5.07
2022-07-31T18:27:48.891Z,4.55
2022-07-31T18:30:16.918Z,4.97
2022-07-31T18:32:44.826Z,4.70
2022-07-31T18:35:13.295Z,7.25
2022-07-31T18:37:41.279Z,5.05
2022-07-31T18:40:09.756Z,4.85
2022-07-31T18:42:38.431Z,4.12
2022-07-31T18:45:07.153Z,3.55
2022-07-31T18:47:35.074Z,3.78
2022-07-31T18:51:00.028Z,5.30
2022-07-31T18:52:51.668Z,8.55
2022-07-31T18:55:20.160Z,6.25
2022-07-31T18:57:51.097Z,5.30
2022-07-31T19:00:19.542Z,5.72
2022-07-31T19:02:47.698Z,5.32
2022-07-31T19:05:21.572Z,5.30
2022-07-31T19:07:50.643Z,5.28
2022-07-31T19:10:30.971Z,6.37
2022-07-31T19:13:01.203Z,6.47
2022-07-31T19:15:30.192Z,7.72
2022-07-31T19:17:58.367Z,4.40
2022-07-31T19:20:41.401Z,3.47
2022-07-31T19:23:21.057Z,3.03
2022-07-31T19:26:02.259Z,4.35
2022-07-31T19:28:51.545Z,4.43
2022-07-31T19:31:20.120Z,6.18
2022-07-31T19:33:48.250Z,20.60
2022-07-31T19:36:16.580Z,7.75
2022-07-31T19:38:45.088Z,6.70
2022-07-31T19:41:14.193Z,95.30
2022-07-31T19:43:44.976Z,27.02
2022-07-31T19:46:13.451Z,16.60
2022-07-31T19:48:46.204Z,4.40
2022-07-31T19:51:16.212Z,3.45
2022-07-31T19:53:45.017Z,3.85
2022-07-31T19:59:04.875Z,4.40
2022-07-31T20:01:37.495Z,4.25
2022-07-31T20:04:11.360Z,4.68
2022-07-31T20:06:58.544Z,5.40
2022-07-31T20:09:27.259Z,4.93
2022-07-31T20:11:55.251Z,4.93
2022-07-31T20:14:23.112Z,4.80
2022-07-31T20:16:51.358Z,5.25
2022-07-31T20:19:19.226Z,45.75
2022-07-31T20:21:47.133Z,62.00
2022-07-31T20:24:18.076Z,37.60
2022-07-31T20:26:45.986Z,16.17
2022-07-31T20:29:13.849Z,14.60
2022-07-31T20:31:42.197Z,13.05
2022-07-31T20:34:10.134Z,6.22
2022-07-31T20:36:38.067Z,4.78
2022-07-31T20:41:52.102Z,5.28
2022-07-31T20:44:20.806Z,5.37
2022-07-31T20:46:51.164Z,7.72
2022-07-31T20:49:35.405Z,6.18
2022-07-31T20:52:05.421Z,6.32
2022-07-31T20:54:34.437Z,5.97
2022-07-31T20:57:03.036Z,8.40
2022-07-31T20:59:31.711Z,5.45
2022-07-31T21:01:59.678Z,6.62
2022-07-31T21:04:27.614Z,5.25
2022-07-31T21:06:55.926Z,6.80
2022-07-31T21:09:26.508Z,7.00
2022-07-31T21:12:13.227Z,6.55
2022-07-31T21:14:41.520Z,9.23
2022-07-31T21:17:09.563Z,25.05
2022-07-31T21:19:37.442Z,28.85
2022-07-31T21:22:06.118Z,51.80
2022-07-31T21:24:34.723Z,6.10
2022-07-31T21:27:05.623Z,4.93
2022-07-31T21:29:34.238Z,5.95
2022-07-31T21:32:03.045Z,10.13
2022-07-31T21:34:31.528Z,14.90
2022-07-31T21:37:01.750Z,4.07
2022-07-31T21:39:30.308Z,4.05
2022-07-31T21:41:58.467Z,4.62
2022-07-31T21:44:27.032Z,3.90
2022-07-31T21:46:56.690Z,3.33
2022-07-31T21:49:32.014Z,3.50
2022-07-31T21:52:01.106Z,3.42
2022-07-31T21:54:29.950Z,3.20
2022-07-31T21:56:57.945Z,3.25
2022-07-31T21:59:26.461Z,3.17
2022-07-31T22:01:57.712Z,2.95
2022-07-31T22:04:34.357Z,3.25
2022-07-31T22:07:21.319Z,2.87
2022-07-31T22:12:35.263Z,4.47
2022-07-31T22:15:04.108Z,3.65
2022-07-31T22:17:32.150Z,4.53
2022-07-31T22:20:00.950Z,4.00
2022-07-31T22:22:31.688Z,3.50
2022-07-31T22:25:00.558Z,4.60
2022-07-31T22:27:47.500Z,4.25
2022-07-31T22:30:16.422Z,4.07
2022-07-31T22:32:44.468Z,3.42
2022-07-31T22:35:13.755Z,3.67
2022-07-31T22:37:43.450Z,3.80
2022-07-31T22:40:11.440Z,3.15
2022-07-31T22:42:39.509Z,3.47
2022-07-31T22:45:08.518Z,3.50
2022-07-31T22:47:37.115Z,3.80
2022-07-31T22:50:06.978Z,3.87
2022-07-31T22:52:36.830Z,4.62
2022-07-31T22:55:06.372Z,4.62
2022-07-31T22:57:34.369Z,3.65
2022-07-31T23:00:21.218Z,3.22
2022-07-31T23:02:49.300Z,3.78
2022-07-31T23:05:17.733Z,3.50
2022-07-31T23:07:45.641Z,4.18
2022-07-31T23:10:13.486Z,3.08
2022-07-31T23:12:41.742Z,3.58
2022-07-31T23:15:09.671Z,3.20
2022-07-31T23:17:37.677Z,4.10
2022-07-31T23:20:07.119Z,3.90
2022-07-31T23:22:35.337Z,3.85
2022-07-31T23:25:05.376Z,3.67
2022-07-31T23:27:34.123Z,3.85
2022-07-31T23:30:02.326Z,4.32
2022-07-31T23:32:31.549Z,3.78
2022-07-31T23:34:59.785Z,3.62
2022-07-31T23:37:27.726Z,3.65
2022-07-31T23:39:55.590Z,3.22
2022-07-31T23:42:38.744Z,3.45
2022-07-31T23:45:13.139Z,3.72
2022-07-31T23:47:45.669Z,3.60
2022-07-31T23:52:44.078Z,4.03
2022-07-31T23:55:13.059Z,3.60
2022-07-31T23:57:41.533Z,4.37
